sensor_id;sensor_type;location;lat;lon;timestamp;P1;durP1;ratioP1;P2;durP2;ratioP2
17283;SDS011;8760;52.248;20.952;2022-07-01T00:00:36;8.80;;;8.00;;
17283;SDS011;8760;52.248;20.952;2022-07-01T00:03:03;13.25;;;8.23;;
17283;SDS011;8760;52.248;20.952;2022-07-01T00:05:30;12.00;;;8.45;;
17283;SDS011;8760;52.248;20.952;2022-07-01T00:07:56;11.80;;;8.45;;
17283;SDS011;8760;52.248;20.952;2022-07-01T00:10:24;10.45;;;8.57;;
17283;SDS011;8760;52.248;20.952;2022-07-01T00:12:52;11.52;;;8.30;;
17283;SDS011;8760;52.248;20.952;2022-07-01T00:15:18;10.45;;;8.80;;
17283;SDS011;8760;52.248;20.952;2022-07-01T00:17:47;9.95;;;8.40;;
17283;SDS011;8760;52.248;20.952;2022-07-01T00:20:14;14.15;;;9.40;;
17283;SDS011;8760;52.248;20.952;2022-07-01T00:22:41;13.90;;;9.05;;
17283;SDS011;8760;52.248;20.952;2022-07-01T00:25:08;10.65;;;9.65;;
17283;SDS011;8760;52.248;20.952;2022-07-01T00:27:37;10.55;;;8.50;;
17283;SDS011;8760;52.248;20.952;2022-07-01T00:30:05;13.68;;;8.98;;
17283;SDS011;8760;52.248;20.952;2022-07-01T00:32:33;12.38;;;8.80;;
17283;SDS011;8760;52.248;20.952;2022-07-01T00:35:00;12.32;;;8.73;;
17283;SDS011;8760;52.248;20.952;2022-07-01T00:37:26;12.15;;;9.35;;
17283;SDS011;8760;52.248;20.952;2022-07-01T00:39:53;10.82;;;8.60;;
17283;SDS011;8760;52.248;20.952;2022-07-01T00:42:20;12.30;;;9.60;;
17283;SDS011;8760;52.248;20.952;2022-07-01T00:44:48;13.57;;;8.73;;
17283;SDS011;8760;52.248;20.952;2022-07-01T00:47:15;14.85;;;9.23;;
17283;SDS011;8760;52.248;20.952;2022-07-01T00:49:41;12.70;;;9.90;;
17283;SDS011;8760;52.248;20.952;2022-07-01T00:52:09;11.70;;;9.57;;
17283;SDS011;8760;52.248;20.952;2022-07-01T00:54:36;11.70;;;9.90;;
17283;SDS011;8760;52.248;20.952;2022-07-01T00:57:07;11.95;;;9.35;;
17283;SDS011;8760;52.248;20.952;2022-07-01T00:59:35;12.10;;;9.88;;
17283;SDS011;8760;52.248;20.952;2022-07-01T01:02:04;11.23;;;9.23;;
17283;SDS011;8760;52.248;20.952;2022-07-01T01:04:33;11.57;;;9.52;;
17283;SDS011;8760;52.248;20.952;2022-07-01T01:07:00;13.20;;;9.55;;
17283;SDS011;8760;52.248;20.952;2022-07-01T01:09:27;12.05;;;9.68;;
17283;SDS011;8760;52.248;20.952;2022-07-01T01:11:54;13.88;;;9.73;;
17283;SDS011;8760;52.248;20.952;2022-07-01T01:14:22;10.85;;;9.85;;
17283;SDS011;8760;52.248;20.952;2022-07-01T01:16:49;14.40;;;11.02;;
17283;SDS011;8760;52.248;20.952;2022-07-01T01:19:17;13.55;;;9.98;;
17283;SDS011;8760;52.248;20.952;2022-07-01T01:21:45;14.57;;;11.10;;
17283;SDS011;8760;52.248;20.952;2022-07-01T01:24:12;11.45;;;9.63;;
17283;SDS011;8760;52.248;20.952;2022-07-01T01:26:39;13.35;;;9.20;;
17283;SDS011;8760;52.248;20.952;2022-07-01T01:29:06;16.20;;;9.00;;
17283;SDS011;8760;52.248;20.952;2022-07-01T01:31:33;13.30;;;8.57;;
17283;SDS011;8760;52.248;20.952;2022-07-01T01:34:01;11.23;;;9.10;;
17283;SDS011;8760;52.248;20.952;2022-07-01T01:36:28;13.73;;;8.88;;
17283;SDS011;8760;52.248;20.952;2022-07-01T01:38:56;14.32;;;8.88;;
17283;SDS011;8760;52.248;20.952;2022-07-01T01:41:24;11.20;;;8.82;;
17283;SDS011;8760;52.248;20.952;2022-07-01T01:43:52;11.38;;;7.80;;
17283;SDS011;8760;52.248;20.952;2022-07-01T01:46:18;11.38;;;8.30;;
17283;SDS011;8760;52.248;20.952;2022-07-01T01:48:45;10.13;;;7.88;;
17283;SDS011;8760;52.248;20.952;2022-07-01T01:51:12;10.48;;;7.55;;
17283;SDS011;8760;52.248;20.952;2022-07-01T01:53:39;13.63;;;8.07;;
17283;SDS011;8760;52.248;20.952;2022-07-01T01:56:07;9.43;;;8.27;;
17283;SDS011;8760;52.248;20.952;2022-07-01T01:58:34;10.27;;;8.00;;
17283;SDS011;8760;52.248;20.952;2022-07-01T02:01:00;11.30;;;8.50;;
17283;SDS011;8760;52.248;20.952;2022-07-01T02:03:27;13.43;;;8.38;;
17283;SDS011;8760;52.248;20.952;2022-07-01T02:05:55;11.40;;;8.50;;
17283;SDS011;8760;52.248;20.952;2022-07-01T02:08:21;11.07;;;8.48;;
17283;SDS011;8760;52.248;20.952;2022-07-01T02:10:48;10.00;;;8.10;;
17283;SDS011;8760;52.248;20.952;2022-07-01T02:13:16;11.32;;;8.55;;
17283;SDS011;8760;52.248;20.952;2022-07-01T02:15:43;12.00;;;8.45;;
17283;SDS011;8760;52.248;20.952;2022-07-01T02:18:10;11.07;;;8.38;;
17283;SDS011;8760;52.248;20.952;2022-07-01T02:20:36;10.65;;;8.63;;
17283;SDS011;8760;52.248;20.952;2022-07-01T02:23:03;10.10;;;8.55;;
17283;SDS011;8760;52.248;20.952;2022-07-01T02:25:30;10.65;;;8.40;;
17283;SDS011;8760;52.248;20.952;2022-07-01T02:27:56;11.18;;;8.63;;
17283;SDS011;8760;52.248;20.952;2022-07-01T02:30:25;11.75;;;8.88;;
17283;SDS011;8760;52.248;20.952;2022-07-01T02:32:52;11.88;;;8.68;;
17283;SDS011;8760;52.248;20.952;2022-07-01T02:35:19;13.18;;;8.27;;
17283;SDS011;8760;52.248;20.952;2022-07-01T02:37:46;13.90;;;7.82;;
17283;SDS011;8760;52.248;20.952;2022-07-01T02:40:12;9.55;;;8.05;;
17283;SDS011;8760;52.248;20.952;2022-07-01T02:42:39;15.45;;;8.38;;
17283;SDS011;8760;52.248;20.952;2022-07-01T02:45:07;12.13;;;8.10;;
17283;SDS011;8760;52.248;20.952;2022-07-01T02:47:36;10.40;;;8.05;;
17283;SDS011;8760;52.248;20.952;2022-07-01T02:50:04;11.63;;;7.75;;
17283;SDS011;8760;52.248;20.952;2022-07-01T02:52:32;12.18;;;8.25;;
17283;SDS011;8760;52.248;20.952;2022-07-01T02:55:00;13.52;;;8.55;;
17283;SDS011;8760;52.248;20.952;2022-07-01T02:57:27;9.63;;;7.72;;
17283;SDS011;8760;52.248;20.952;2022-07-01T02:59:53;10.07;;;7.68;;
17283;SDS011;8760;52.248;20.952;2022-07-01T03:02:20;10.85;;;8.15;;
17283;SDS011;8760;52.248;20.952;2022-07-01T03:04:50;12.27;;;8.88;;
17283;SDS011;8760;52.248;20.952;2022-07-01T03:07:18;8.35;;;7.43;;
17283;SDS011;8760;52.248;20.952;2022-07-01T03:09:46;11.20;;;8.43;;
17283;SDS011;8760;52.248;20.952;2022-07-01T03:12:13;12.43;;;9.52;;
17283;SDS011;8760;52.248;20.952;2022-07-01T03:14:53;16.15;;;8.88;;
17283;SDS011;8760;52.248;20.952;2022-07-01T03:17:21;11.20;;;7.93;;
17283;SDS011;8760;52.248;20.952;2022-07-01T03:19:49;13.77;;;8.07;;
17283;SDS011;8760;52.248;20.952;2022-07-01T03:22:17;9.57;;;8.52;;
17283;SDS011;8760;52.248;20.952;2022-07-01T03:24:45;14.48;;;8.00;;
17283;SDS011;8760;52.248;20.952;2022-07-01T03:27:12;11.95;;;8.75;;
17283;SDS011;8760;52.248;20.952;2022-07-01T03:29:38;14.32;;;8.27;;
17283;SDS011;8760;52.248;20.952;2022-07-01T03:32:05;14.00;;;8.30;;
17283;SDS011;8760;52.248;20.952;2022-07-01T03:34:34;11.07;;;8.27;;
17283;SDS011;8760;52.248;20.952;2022-07-01T03:37:02;13.32;;;8.38;;
17283;SDS011;8760;52.248;20.952;2022-07-01T03:39:29;14.48;;;8.95;;
17283;SDS011;8760;52.248;20.952;2022-07-01T03:41:56;10.15;;;7.68;;
17283;SDS011;8760;52.248;20.952;2022-07-01T03:44:22;9.93;;;8.48;;
17283;SDS011;8760;52.248;20.952;2022-07-01T03:46:49;15.35;;;8.50;;
17283;SDS011;8760;52.248;20.952;2022-07-01T03:49:16;12.93;;;8.77;;
17283;SDS011;8760;52.248;20.952;2022-07-01T03:51:43;11.88;;;9.05;;
17283;SDS011;8760;52.248;20.952;2022-07-01T03:54:11;13.45;;;8.73;;
17283;SDS011;8760;52.248;20.952;2022-07-01T03:56:55;14.25;;;10.15;;
17283;SDS011;8760;52.248;20.952;2022-07-01T03:59:22;15.52;;;9.35;;
17283;SDS011;8760;52.248;20.952;2022-07-01T04:01:49;12.98;;;9.30;;
17283;SDS011;8760;52.248;20.952;2022-07-01T04:04:15;11.35;;;8.50;;
17283;SDS011;8760;52.248;20.952;2022-07-01T04:06:42;14.38;;;9.93;;
17283;SDS011;8760;52.248;20.952;2022-07-01T04:09:11;13.77;;;9.43;;
17283;SDS011;8760;52.248;20.952;2022-07-01T04:11:39;14.52;;;10.25;;
17283;SDS011;8760;52.248;20.952;2022-07-01T04:14:06;14.45;;;10.73;;
17283;SDS011;8760;52.248;20.952;2022-07-01T04:16:34;14.27;;;10.07;;
17283;SDS011;8760;52.248;20.952;2022-07-01T04:19:01;16.33;;;11.90;;
17283;SDS011;8760;52.248;20.952;2022-07-01T04:21:28;31.70;;;28.48;;
17283;SDS011;8760;52.248;20.952;2022-07-01T04:24:13;14.88;;;11.52;;
17283;SDS011;8760;52.248;20.952;2022-07-01T04:26:40;12.23;;;10.95;;
17283;SDS011;8760;52.248;20.952;2022-07-01T04:29:07;18.20;;;11.13;;
17283;SDS011;8760;52.248;20.952;2022-07-01T04:31:34;15.68;;;10.85;;
17283;SDS011;8760;52.248;20.952;2022-07-01T04:34:02;13.15;;;10.70;;
17283;SDS011;8760;52.248;20.952;2022-07-01T04:36:29;17.90;;;12.32;;
17283;SDS011;8760;52.248;20.952;2022-07-01T04:38:56;13.35;;;11.20;;
17283;SDS011;8760;52.248;20.952;2022-07-01T04:41:24;17.25;;;12.02;;
17283;SDS011;8760;52.248;20.952;2022-07-01T04:44:08;13.00;;;11.68;;
17283;SDS011;8760;52.248;20.952;2022-07-01T04:46:36;15.60;;;11.82;;
17283;SDS011;8760;52.248;20.952;2022-07-01T04:49:03;14.48;;;12.35;;
17283;SDS011;8760;52.248;20.952;2022-07-01T04:51:30;15.93;;;12.52;;
17283;SDS011;8760;52.248;20.952;2022-07-01T04:53:59;15.30;;;12.27;;
17283;SDS011;8760;52.248;20.952;2022-07-01T04:56:27;14.02;;;12.45;;
17283;SDS011;8760;52.248;20.952;2022-07-01T04:58:54;14.48;;;12.35;;
17283;SDS011;8760;52.248;20.952;2022-07-01T05:01:21;16.75;;;12.80;;
17283;SDS011;8760;52.248;20.952;2022-07-01T05:03:48;16.80;;;13.07;;
17283;SDS011;8760;52.248;20.952;2022-07-01T05:06:15;15.93;;;13.10;;
17283;SDS011;8760;52.248;20.952;2022-07-01T05:08:42;13.40;;;12.00;;
17283;SDS011;8760;52.248;20.952;2022-07-01T05:11:09;14.90;;;12.63;;
17283;SDS011;8760;52.248;20.952;2022-07-01T05:13:37;13.80;;;12.38;;
17283;SDS011;8760;52.248;20.952;2022-07-01T05:16:04;15.48;;;13.35;;
17283;SDS011;8760;52.248;20.952;2022-07-01T05:18:33;15.38;;;12.93;;
17283;SDS011;8760;52.248;20.952;2022-07-01T05:21:17;16.73;;;13.48;;
17283;SDS011;8760;52.248;20.952;2022-07-01T05:24:02;13.90;;;12.68;;
17283;SDS011;8760;52.248;20.952;2022-07-01T05:26:29;14.65;;;13.07;;
17283;SDS011;8760;52.248;20.952;2022-07-01T05:28:57;15.75;;;12.85;;
17283;SDS011;8760;52.248;20.952;2022-07-01T05:31:24;15.10;;;13.40;;
17283;SDS011;8760;52.248;20.952;2022-07-01T05:33:51;14.85;;;13.05;;
17283;SDS011;8760;52.248;20.952;2022-07-01T05:36:18;16.00;;;13.93;;
17283;SDS011;8760;52.248;20.952;2022-07-01T05:38:44;15.75;;;13.43;;
17283;SDS011;8760;52.248;20.952;2022-07-01T05:41:12;16.83;;;12.80;;
17283;SDS011;8760;52.248;20.952;2022-07-01T05:43:39;13.88;;;12.65;;
17283;SDS011;8760;52.248;20.952;2022-07-01T05:46:07;14.85;;;13.32;;
17283;SDS011;8760;52.248;20.952;2022-07-01T05:48:34;15.45;;;13.85;;
17283;SDS011;8760;52.248;20.952;2022-07-01T05:51:01;15.70;;;13.85;;
17283;SDS011;8760;52.248;20.952;2022-07-01T05:53:27;17.85;;;13.32;;
17283;SDS011;8760;52.248;20.952;2022-07-01T05:55:54;16.08;;;13.63;;
17283;SDS011;8760;52.248;20.952;2022-07-01T05:58:21;14.70;;;13.15;;
17283;SDS011;8760;52.248;20.952;2022-07-01T06:00:48;14.70;;;13.20;;
17283;SDS011;8760;52.248;20.952;2022-07-01T06:03:16;14.63;;;13.10;;
17283;SDS011;8760;52.248;20.952;2022-07-01T06:05:43;13.45;;;12.20;;
17283;SDS011;8760;52.248;20.952;2022-07-01T06:08:12;15.20;;;13.68;;
17283;SDS011;8760;52.248;20.952;2022-07-01T06:10:38;14.80;;;13.05;;
17283;SDS011;8760;52.248;20.952;2022-07-01T06:13:05;16.05;;;12.70;;
17283;SDS011;8760;52.248;20.952;2022-07-01T06:15:32;17.02;;;12.68;;
17283;SDS011;8760;52.248;20.952;2022-07-01T06:17:59;15.63;;;14.10;;
17283;SDS011;8760;52.248;20.952;2022-07-01T06:20:28;14.25;;;12.23;;
17283;SDS011;8760;52.248;20.952;2022-07-01T06:22:55;15.77;;;13.68;;
17283;SDS011;8760;52.248;20.952;2022-07-01T06:25:23;15.02;;;13.63;;
17283;SDS011;8760;52.248;20.952;2022-07-01T06:27:49;13.10;;;11.80;;
17283;SDS011;8760;52.248;20.952;2022-07-01T06:30:16;13.38;;;12.05;;
17283;SDS011;8760;52.248;20.952;2022-07-01T06:32:43;13.48;;;12.15;;
17283;SDS011;8760;52.248;20.952;2022-07-01T06:35:09;14.00;;;12.80;;
17283;SDS011;8760;52.248;20.952;2022-07-01T06:37:37;14.65;;;12.23;;
17283;SDS011;8760;52.248;20.952;2022-07-01T06:40:05;13.70;;;12.18;;
17283;SDS011;8760;52.248;20.952;2022-07-01T06:42:33;12.77;;;11.50;;
17283;SDS011;8760;52.248;20.952;2022-07-01T06:45:00;14.70;;;11.65;;
17283;SDS011;8760;52.248;20.952;2022-07-01T06:47:27;13.75;;;11.18;;
17283;SDS011;8760;52.248;20.952;2022-07-01T06:49:54;17.88;;;12.00;;
17283;SDS011;8760;52.248;20.952;2022-07-01T06:52:20;13.55;;;12.23;;
17283;SDS011;8760;52.248;20.952;2022-07-01T06:54:49;13.38;;;11.82;;
17283;SDS011;8760;52.248;20.952;2022-07-01T06:57:15;13.35;;;11.35;;
17283;SDS011;8760;52.248;20.952;2022-07-01T06:59:42;15.63;;;12.05;;
17283;SDS011;8760;52.248;20.952;2022-07-01T07:02:09;20.65;;;11.90;;
17283;SDS011;8760;52.248;20.952;2022-07-01T07:04:35;13.75;;;11.45;;
17283;SDS011;8760;52.248;20.952;2022-07-01T07:07:02;17.25;;;12.23;;
17283;SDS011;8760;52.248;20.952;2022-07-01T07:09:29;15.60;;;12.18;;
17283;SDS011;8760;52.248;20.952;2022-07-01T07:11:57;18.40;;;11.75;;
17283;SDS011;8760;52.248;20.952;2022-07-01T07:14:24;16.38;;;11.90;;
17283;SDS011;8760;52.248;20.952;2022-07-01T07:16:51;16.48;;;11.90;;
17283;SDS011;8760;52.248;20.952;2022-07-01T07:19:20;20.17;;;11.90;;
17283;SDS011;8760;52.248;20.952;2022-07-01T07:21:47;13.48;;;12.05;;
17283;SDS011;8760;52.248;20.952;2022-07-01T07:24:14;21.85;;;12.27;;
17283;SDS011;8760;52.248;20.952;2022-07-01T07:26:40;18.15;;;12.25;;
17283;SDS011;8760;52.248;20.952;2022-07-01T07:29:09;16.95;;;11.77;;
17283;SDS011;8760;52.248;20.952;2022-07-01T07:31:36;16.75;;;11.90;;
17283;SDS011;8760;52.248;20.952;2022-07-01T07:34:03;20.38;;;11.98;;
17283;SDS011;8760;52.248;20.952;2022-07-01T07:36:31;20.85;;;12.15;;
17283;SDS011;8760;52.248;20.952;2022-07-01T07:38:58;19.55;;;12.05;;
17283;SDS011;8760;52.248;20.952;2022-07-01T07:41:24;24.05;;;12.40;;
17283;SDS011;8760;52.248;20.952;2022-07-01T07:43:51;15.65;;;12.35;;
17283;SDS011;8760;52.248;20.952;2022-07-01T07:46:19;16.15;;;11.88;;
17283;SDS011;8760;52.248;20.952;2022-07-01T07:48:46;14.68;;;11.23;;
17283;SDS011;8760;52.248;20.952;2022-07-01T07:51:13;16.88;;;11.38;;
17283;SDS011;8760;52.248;20.952;2022-07-01T07:53:42;15.95;;;11.18;;
17283;SDS011;8760;52.248;20.952;2022-07-01T07:56:09;16.95;;;11.23;;
17283;SDS011;8760;52.248;20.952;2022-07-01T07:58:36;18.15;;;10.90;;
17283;SDS011;8760;52.248;20.952;2022-07-01T08:01:06;15.88;;;10.13;;
17283;SDS011;8760;52.248;20.952;2022-07-01T08:03:35;14.30;;;10.73;;
17283;SDS011;8760;52.248;20.952;2022-07-01T08:06:02;14.40;;;9.55;;
17283;SDS011;8760;52.248;20.952;2022-07-01T08:08:29;13.90;;;10.35;;
17283;SDS011;8760;52.248;20.952;2022-07-01T08:10:55;12.05;;;9.52;;
17283;SDS011;8760;52.248;20.952;2022-07-01T08:13:22;13.95;;;9.27;;
17283;SDS011;8760;52.248;20.952;2022-07-01T08:15:49;15.25;;;10.95;;
17283;SDS011;8760;52.248;20.952;2022-07-01T08:18:16;15.48;;;9.82;;
17283;SDS011;8760;52.248;20.952;2022-07-01T08:20:44;12.48;;;8.82;;
17283;SDS011;8760;52.248;20.952;2022-07-01T08:23:11;11.23;;;8.35;;
17283;SDS011;8760;52.248;20.952;2022-07-01T08:25:38;12.43;;;8.68;;
17283;SDS011;8760;52.248;20.952;2022-07-01T08:28:05;10.80;;;8.35;;
17283;SDS011;8760;52.248;20.952;2022-07-01T08:30:32;11.27;;;8.75;;
17283;SDS011;8760;52.248;20.952;2022-07-01T08:32:59;10.02;;;8.43;;
17283;SDS011;8760;52.248;20.952;2022-07-01T08:35:26;9.75;;;8.82;;
17283;SDS011;8760;52.248;20.952;2022-07-01T08:37:54;9.40;;;8.50;;
17283;SDS011;8760;52.248;20.952;2022-07-01T08:40:23;10.27;;;9.30;;
17283;SDS011;8760;52.248;20.952;2022-07-01T08:42:54;9.50;;;8.60;;
17283;SDS011;8760;52.248;20.952;2022-07-01T08:45:22;10.02;;;7.82;;
17283;SDS011;8760;52.248;20.952;2022-07-01T08:47:51;8.68;;;7.88;;
17283;SDS011;8760;52.248;20.952;2022-07-01T08:50:20;10.85;;;8.23;;
17283;SDS011;8760;52.248;20.952;2022-07-01T08:52:47;10.73;;;8.52;;
17283;SDS011;8760;52.248;20.952;2022-07-01T08:55:15;9.20;;;8.23;;
17283;SDS011;8760;52.248;20.952;2022-07-01T08:57:43;11.30;;;8.32;;
17283;SDS011;8760;52.248;20.952;2022-07-01T09:00:10;9.00;;;8.30;;
17283;SDS011;8760;52.248;20.952;2022-07-01T09:02:50;8.48;;;7.68;;
17283;SDS011;8760;52.248;20.952;2022-07-01T09:05:22;9.05;;;7.50;;
17283;SDS011;8760;52.248;20.952;2022-07-01T09:07:55;9.25;;;7.53;;
17283;SDS011;8760;52.248;20.952;2022-07-01T09:10:25;13.38;;;7.40;;
17283;SDS011;8760;52.248;20.952;2022-07-01T09:12:56;9.27;;;7.32;;
17283;SDS011;8760;52.248;20.952;2022-07-01T09:15:24;9.93;;;6.35;;
17283;SDS011;8760;52.248;20.952;2022-07-01T09:17:54;11.63;;;6.82;;
17283;SDS011;8760;52.248;20.952;2022-07-01T09:20:26;9.15;;;7.20;;
17283;SDS011;8760;52.248;20.952;2022-07-01T09:23:01;10.77;;;7.10;;
17283;SDS011;8760;52.248;20.952;2022-07-01T09:25:32;7.28;;;6.68;;
17283;SDS011;8760;52.248;20.952;2022-07-01T09:28:05;9.82;;;7.80;;
17283;SDS011;8760;52.248;20.952;2022-07-01T09:30:34;7.75;;;6.70;;
17283;SDS011;8760;52.248;20.952;2022-07-01T09:33:08;7.97;;;7.10;;
17283;SDS011;8760;52.248;20.952;2022-07-01T09:35:37;8.70;;;7.68;;
17283;SDS011;8760;52.248;20.952;2022-07-01T09:38:04;10.02;;;7.10;;
17283;SDS011;8760;52.248;20.952;2022-07-01T09:40:47;8.45;;;7.60;;
17283;SDS011;8760;52.248;20.952;2022-07-01T09:43:15;10.45;;;7.68;;
17283;SDS011;8760;52.248;20.952;2022-07-01T09:45:54;9.25;;;6.93;;
17283;SDS011;8760;52.248;20.952;2022-07-01T09:48:22;9.18;;;6.85;;
17283;SDS011;8760;52.248;20.952;2022-07-01T09:50:51;8.10;;;7.30;;
17283;SDS011;8760;52.248;20.952;2022-07-01T09:53:18;9.82;;;7.18;;
17283;SDS011;8760;52.248;20.952;2022-07-01T09:55:46;8.60;;;6.88;;
17283;SDS011;8760;52.248;20.952;2022-07-01T09:58:13;9.27;;;7.00;;
17283;SDS011;8760;52.248;20.952;2022-07-01T10:00:40;9.90;;;7.22;;
17283;SDS011;8760;52.248;20.952;2022-07-01T10:03:08;7.25;;;6.45;;
17283;SDS011;8760;52.248;20.952;2022-07-01T10:05:38;10.38;;;7.40;;
17283;SDS011;8760;52.248;20.952;2022-07-01T10:08:20;11.32;;;8.18;;
17283;SDS011;8760;52.248;20.952;2022-07-01T10:11:04;9.32;;;8.45;;
17283;SDS011;8760;52.248;20.952;2022-07-01T10:13:51;12.65;;;10.27;;
17283;SDS011;8760;52.248;20.952;2022-07-01T10:16:19;11.15;;;9.55;;
17283;SDS011;8760;52.248;20.952;2022-07-01T10:18:46;10.27;;;8.82;;
17283;SDS011;8760;52.248;20.952;2022-07-01T10:21:25;10.20;;;7.75;;
17283;SDS011;8760;52.248;20.952;2022-07-01T10:23:56;11.20;;;7.80;;
17283;SDS011;8760;52.248;20.952;2022-07-01T10:26:39;8.57;;;7.85;;
17283;SDS011;8760;52.248;20.952;2022-07-01T10:32:02;10.30;;;7.60;;
17283;SDS011;8760;52.248;20.952;2022-07-01T10:34:34;7.50;;;6.75;;
17283;SDS011;8760;52.248;20.952;2022-07-01T10:37:02;9.88;;;7.53;;
17283;SDS011;8760;52.248;20.952;2022-07-01T10:39:31;8.07;;;7.22;;
17283;SDS011;8760;52.248;20.952;2022-07-01T10:42:27;9.07;;;6.93;;
17283;SDS011;8760;52.248;20.952;2022-07-01T10:44:59;9.02;;;7.15;;
17283;SDS011;8760;52.248;20.952;2022-07-01T10:47:27;10.43;;;6.45;;
17283;SDS011;8760;52.248;20.952;2022-07-01T10:49:54;7.22;;;6.63;;
17283;SDS011;8760;52.248;20.952;2022-07-01T10:52:23;9.38;;;6.32;;
17283;SDS011;8760;52.248;20.952;2022-07-01T10:54:50;10.38;;;6.72;;
17283;SDS011;8760;52.248;20.952;2022-07-01T10:57:32;11.90;;;10.70;;
17283;SDS011;8760;52.248;20.952;2022-07-01T11:03:19;11.93;;;7.50;;
17283;SDS011;8760;52.248;20.952;2022-07-01T11:05:49;7.70;;;7.00;;
17283;SDS011;8760;52.248;20.952;2022-07-01T11:08:18;11.38;;;10.27;;
17283;SDS011;8760;52.248;20.952;2022-07-01T11:10:48;15.88;;;11.15;;
17283;SDS011;8760;52.248;20.952;2022-07-01T11:13:18;10.73;;;7.95;;
17283;SDS011;8760;52.248;20.952;2022-07-01T11:15:45;11.13;;;6.97;;
17283;SDS011;8760;52.248;20.952;2022-07-01T11:18:14;7.38;;;6.65;;
17283;SDS011;8760;52.248;20.952;2022-07-01T11:20:42;9.13;;;7.22;;
17283;SDS011;8760;52.248;20.952;2022-07-01T11:23:09;11.70;;;7.30;;
17283;SDS011;8760;52.248;20.952;2022-07-01T11:25:36;11.57;;;6.97;;
17283;SDS011;8760;52.248;20.952;2022-07-01T11:28:03;8.30;;;6.70;;
17283;SDS011;8760;52.248;20.952;2022-07-01T11:30:31;12.52;;;8.63;;
17283;SDS011;8760;52.248;20.952;2022-07-01T11:32:58;9.32;;;7.15;;
17283;SDS011;8760;52.248;20.952;2022-07-01T11:35:25;14.60;;;10.50;;
17283;SDS011;8760;52.248;20.952;2022-07-01T11:38:11;9.68;;;6.68;;
17283;SDS011;8760;52.248;20.952;2022-07-01T11:40:57;11.07;;;7.18;;
17283;SDS011;8760;52.248;20.952;2022-07-01T11:43:26;9.43;;;6.38;;
17283;SDS011;8760;52.248;20.952;2022-07-01T11:45:56;13.60;;;6.45;;
17283;SDS011;8760;52.248;20.952;2022-07-01T11:48:29;9.35;;;6.50;;
17283;SDS011;8760;52.248;20.952;2022-07-01T11:50:57;7.95;;;6.47;;
17283;SDS011;8760;52.248;20.952;2022-07-01T11:53:25;11.95;;;6.82;;
17283;SDS011;8760;52.248;20.952;2022-07-01T11:55:52;10.93;;;7.10;;
17283;SDS011;8760;52.248;20.952;2022-07-01T11:58:19;12.13;;;6.70;;
17283;SDS011;8760;52.248;20.952;2022-07-01T12:00:46;7.63;;;6.80;;
17283;SDS011;8760;52.248;20.952;2022-07-01T12:03:14;9.75;;;7.32;;
17283;SDS011;8760;52.248;20.952;2022-07-01T12:05:55;6.57;;;5.95;;
17283;SDS011;8760;52.248;20.952;2022-07-01T12:08:22;12.20;;;6.60;;
17283;SDS011;8760;52.248;20.952;2022-07-01T12:10:49;15.07;;;6.75;;
17283;SDS011;8760;52.248;20.952;2022-07-01T12:13:25;9.48;;;7.03;;
17283;SDS011;8760;52.248;20.952;2022-07-01T12:15:52;10.52;;;6.60;;
17283;SDS011;8760;52.248;20.952;2022-07-01T12:18:21;10.10;;;6.47;;
17283;SDS011;8760;52.248;20.952;2022-07-01T12:20:48;9.35;;;6.68;;
17283;SDS011;8760;52.248;20.952;2022-07-01T12:23:16;10.02;;;6.82;;
17283;SDS011;8760;52.248;20.952;2022-07-01T12:25:46;8.68;;;6.97;;
17283;SDS011;8760;52.248;20.952;2022-07-01T12:28:27;10.85;;;6.90;;
17283;SDS011;8760;52.248;20.952;2022-07-01T12:30:59;12.25;;;6.65;;
17283;SDS011;8760;52.248;20.952;2022-07-01T12:33:33;13.43;;;6.50;;
17283;SDS011;8760;52.248;20.952;2022-07-01T12:36:01;11.75;;;6.05;;
17283;SDS011;8760;52.248;20.952;2022-07-01T12:38:29;10.23;;;6.13;;
17283;SDS011;8760;52.248;20.952;2022-07-01T12:40:56;11.52;;;6.85;;
17283;SDS011;8760;52.248;20.952;2022-07-01T12:43:24;9.63;;;6.47;;
17283;SDS011;8760;52.248;20.952;2022-07-01T12:45:53;13.23;;;6.95;;
17283;SDS011;8760;52.248;20.952;2022-07-01T12:48:21;10.40;;;6.93;;
17283;SDS011;8760;52.248;20.952;2022-07-01T12:50:49;11.43;;;6.63;;
17283;SDS011;8760;52.248;20.952;2022-07-01T12:53:19;7.47;;;6.65;;
17283;SDS011;8760;52.248;20.952;2022-07-01T12:55:47;11.23;;;6.60;;
17283;SDS011;8760;52.248;20.952;2022-07-01T12:58:15;8.93;;;6.65;;
17283;SDS011;8760;52.248;20.952;2022-07-01T13:00:43;7.07;;;6.28;;
17283;SDS011;8760;52.248;20.952;2022-07-01T13:03:11;8.35;;;6.45;;
17283;SDS011;8760;52.248;20.952;2022-07-01T13:05:39;10.23;;;6.15;;
17283;SDS011;8760;52.248;20.952;2022-07-01T13:08:08;11.60;;;6.18;;
17283;SDS011;8760;52.248;20.952;2022-07-01T13:10:36;10.40;;;6.38;;
17283;SDS011;8760;52.248;20.952;2022-07-01T13:13:03;10.18;;;6.70;;
17283;SDS011;8760;52.248;20.952;2022-07-01T13:15:30;11.05;;;6.32;;
17283;SDS011;8760;52.248;20.952;2022-07-01T13:17:57;11.55;;;6.10;;
17283;SDS011;8760;52.248;20.952;2022-07-01T13:20:23;7.28;;;6.03;;
17283;SDS011;8760;52.248;20.952;2022-07-01T13:22:51;12.35;;;6.72;;
17283;SDS011;8760;52.248;20.952;2022-07-01T13:25:19;10.10;;;6.63;;
17283;SDS011;8760;52.248;20.952;2022-07-01T13:27:46;11.35;;;6.40;;
17283;SDS011;8760;52.248;20.952;2022-07-01T13:30:14;13.73;;;7.07;;
17283;SDS011;8760;52.248;20.952;2022-07-01T13:32:41;8.88;;;6.03;;
17283;SDS011;8760;52.248;20.952;2022-07-01T13:35:09;10.93;;;6.30;;
17283;SDS011;8760;52.248;20.952;2022-07-01T13:37:37;8.00;;;6.18;;
17283;SDS011;8760;52.248;20.952;2022-07-01T13:40:04;11.23;;;7.05;;
17283;SDS011;8760;52.248;20.952;2022-07-01T13:42:33;8.77;;;6.95;;
17283;SDS011;8760;52.248;20.952;2022-07-01T13:45:00;13.85;;;7.13;;
17283;SDS011;8760;52.248;20.952;2022-07-01T13:47:27;8.18;;;6.65;;
17283;SDS011;8760;52.248;20.952;2022-07-01T13:49:54;10.02;;;6.72;;
17283;SDS011;8760;52.248;20.952;2022-07-01T13:52:21;8.57;;;6.03;;
17283;SDS011;8760;52.248;20.952;2022-07-01T13:54:48;9.50;;;6.22;;
17283;SDS011;8760;52.248;20.952;2022-07-01T13:57:15;9.55;;;6.07;;
17283;SDS011;8760;52.248;20.952;2022-07-01T13:59:44;7.70;;;6.93;;
17283;SDS011;8760;52.248;20.952;2022-07-01T14:02:10;12.20;;;6.78;;
17283;SDS011;8760;52.248;20.952;2022-07-01T14:04:38;9.23;;;6.60;;
17283;SDS011;8760;52.248;20.952;2022-07-01T14:07:04;8.05;;;6.50;;
17283;SDS011;8760;52.248;20.952;2022-07-01T14:09:32;11.05;;;6.82;;
17283;SDS011;8760;52.248;20.952;2022-07-01T14:11:59;9.27;;;6.45;;
17283;SDS011;8760;52.248;20.952;2022-07-01T14:14:27;9.95;;;6.43;;
17283;SDS011;8760;52.248;20.952;2022-07-01T14:16:55;7.82;;;6.28;;
17283;SDS011;8760;52.248;20.952;2022-07-01T14:19:21;8.07;;;6.07;;
17283;SDS011;8760;52.248;20.952;2022-07-01T14:21:48;10.30;;;6.32;;
17283;SDS011;8760;52.248;20.952;2022-07-01T14:24:15;7.65;;;6.90;;
17283;SDS011;8760;52.248;20.952;2022-07-01T14:26:42;6.57;;;5.97;;
17283;SDS011;8760;52.248;20.952;2022-07-01T14:29:09;7.53;;;6.63;;
17283;SDS011;8760;52.248;20.952;2022-07-01T14:31:35;10.18;;;6.70;;
17283;SDS011;8760;52.248;20.952;2022-07-01T14:34:03;9.45;;;6.43;;
17283;SDS011;8760;52.248;20.952;2022-07-01T14:36:30;13.60;;;6.38;;
17283;SDS011;8760;52.248;20.952;2022-07-01T14:38:57;9.40;;;6.15;;
17283;SDS011;8760;52.248;20.952;2022-07-01T14:41:24;10.73;;;5.75;;
17283;SDS011;8760;52.248;20.952;2022-07-01T14:43:51;10.55;;;6.80;;
17283;SDS011;8760;52.248;20.952;2022-07-01T14:46:18;7.57;;;6.20;;